Almirante Gago Coutinho — CTHA — position and weather

sailwx.info

Track history (hours):
 
Tides and Currents Weather Stations Pressure Air Temp Water Temp Dewpoint Dewpoint Depression Visibility Wind Speed Wind Dir Waves Ship Positions

Oceanographic research ship Almirante Gago Coutinho (Portugal)

Detailed information on ship capabilities available from University of Delaware's Ocean Information Center.

Last reported at 2019-Nov-30 21:30 UTC. Time now 2019-Dec-11 10:42 UTC.
Position N 38°40' W 009°09'.
Warning: this ship's position is 10 days out of date.

Length 69 m; draft 5.6 m.

Type: Military. MMSI: 263145000.

Date/timePositionNaut miles runAvg speedWind from/ knotsBaromVisibWave heightAir tempDewpointWater temp
2019-Nov-30 21:30N 38°40' W 009°09'1 1.5
2019-Nov-30 20:30N 38°41' W 009°08'9 6.1
2019-Nov-30 19:00N 38°40' W 009°19'4 7.6
2019-Nov-30 18:31N 38°37' W 009°23'37 7.4
2019-Nov-30 13:30N 39°14' W 009°29'9 8.7
2019-Nov-30 12:30N 39°22' W 009°27'8 0.4
2019-Nov-29 17:47N 39°28' W 009°34'2 6.4
2019-Nov-29 17:26N 39°28' W 009°37'1 0.6
2019-Nov-29 16:05N 39°27' W 009°37'0 0.3
2019-Nov-29 15:59N 39°27' W 009°37'0 0.4
2019-Nov-29 15:29N 39°27' W 009°37'0 0.3
2019-Nov-29 13:50N 39°28' W 009°38'8 0.9
2019-Nov-29 05:00N 39°20' W 009°36'2 3.9
2019-Nov-29 04:30N 39°18' W 009°36'4 4.3
2019-Nov-29 03:30N 39°14' W 009°36'4 4.0
2019-Nov-29 02:30N 39°10' W 009°36'2 4.4
2019-Nov-29 02:01N 39°08' W 009°36'6 4.3
2019-Nov-29 00:31N 39°01' W 009°35'14 4.7
2019-Nov-28 21:30N 38°47' W 009°33'7 4.8
2019-Nov-28 20:00N 38°40' W 009°33'2 4.8
2019-Nov-28 19:31N 38°39' W 009°30'2 4.7
2019-Nov-28 19:00N 38°38' W 009°27'5 4.5
2019-Nov-28 18:00N 38°38' W 009°21'11 7.4
2019-Nov-28 16:31N 38°41' W 009°08'2 2.9
2019-Nov-28 15:59N 38°40' W 009°09'0 0.0
2019-Nov-27 09:45N 38°40' W 009°09'  
Track history (hours):
 
Tides and Currents Weather Stations Pressure Air Temp Water Temp Dewpoint Dewpoint Depression Visibility Wind Speed Wind Dir Waves Ship Positions

Oceanographic research ship Almirante Gago Coutinho (Portugal)

Detailed information on ship capabilities available from University of Delaware's Ocean Information Center.

Last reported at 2019-Nov-30 21:30 UTC. Time now 2019-Dec-11 10:42 UTC.
Position N 38°40' W 009°09'.
Warning: this ship's position is 10 days out of date.

Length 69 m; draft 5.6 m.

Type: Military. MMSI: 263145000.

Date/timePositionNaut miles runAvg speedWind from/ knotsBaromVisibWave heightAir tempDewpointWater temp
2019-Nov-30 21:30N 38°40' W 009°09'1 1.5
2019-Nov-30 20:30N 38°41' W 009°08'9 6.1
2019-Nov-30 19:00N 38°40' W 009°19'4 7.6
2019-Nov-30 18:31N 38°37' W 009°23'37 7.4
2019-Nov-30 13:30N 39°14' W 009°29'9 8.7
2019-Nov-30 12:30N 39°22' W 009°27'8 0.4
2019-Nov-29 17:47N 39°28' W 009°34'2 6.4
2019-Nov-29 17:26N 39°28' W 009°37'1 0.6
2019-Nov-29 16:05N 39°27' W 009°37'0 0.3
2019-Nov-29 15:59N 39°27' W 009°37'0 0.4
2019-Nov-29 15:29N 39°27' W 009°37'0 0.3
2019-Nov-29 13:50N 39°28' W 009°38'8 0.9
2019-Nov-29 05:00N 39°20' W 009°36'2 3.9
2019-Nov-29 04:30N 39°18' W 009°36'4 4.3
2019-Nov-29 03:30N 39°14' W 009°36'4 4.0
2019-Nov-29 02:30N 39°10' W 009°36'2 4.4
2019-Nov-29 02:01N 39°08' W 009°36'6 4.3
2019-Nov-29 00:31N 39°01' W 009°35'14 4.7
2019-Nov-28 21:30N 38°47' W 009°33'7 4.8
2019-Nov-28 20:00N 38°40' W 009°33'2 4.8
2019-Nov-28 19:31N 38°39' W 009°30'2 4.7
2019-Nov-28 19:00N 38°38' W 009°27'5 4.5
2019-Nov-28 18:00N 38°38' W 009°21'11 7.4
2019-Nov-28 16:31N 38°41' W 009°08'2 2.9
2019-Nov-28 15:59N 38°40' W 009°09'0 0.0
2019-Nov-27 09:45N 38°40' W 009°09'  

Dump ship's entire track history